Time;durP1;ratioP1;P1;durP2;ratioP2;P2;SDS_P1;SDS_P2;PMS_P1;PMS_P2;Temp;Humidity;BMP_temperature;BMP_pressure;BME280_temperature;BME280_humidity;BME280_pressure;Samples;Min_cycle;Max_cycle;Signal;HPM_P1;HPM_P2
2023/07/22 00:01:31;;;;;;;9.02;5.72;;;;;;;15.65;65.94;101298.75;4968933;28;20037;-91
2023/07/22 00:03:56;;;;;;;8.57;5.25;;;;;;;15.63;65.85;101296.22;4956857;28;20029;-92
2023/07/22 00:06:21;;;;;;;7.60;5.10;;;;;;;15.63;66.33;101293.59;4957199;28;20063;-91
2023/07/22 00:08:47;;;;;;;8.60;5.18;;;;;;;15.63;66.34;101295.34;4957277;28;20035;-91
2023/07/22 00:11:12;;;;;;;8.73;5.60;;;;;;;15.63;65.76;101304.09;4962159;28;20027;-90
2023/07/22 00:13:37;;;;;;;7.90;5.35;;;;;;;15.67;65.86;101306.59;4974100;28;20414;-90
2023/07/22 00:16:04;;;;;;;9.60;5.43;;;;;;;15.68;65.96;101305.69;4972225;28;20045;-91
2023/07/22 00:18:30;;;;;;;8.20;5.57;;;;;;;15.67;65.85;101303.97;4957395;28;20059;-91
2023/07/22 00:20:56;;;;;;;8.32;5.93;;;;;;;15.68;65.82;101297.81;4963070;28;20019;-91
2023/07/22 00:23:22;;;;;;;8.73;5.57;;;;;;;15.68;65.88;101300.44;4969300;28;20033;-91
2023/07/22 00:25:47;;;;;;;10.77;6.15;;;;;;;15.67;65.96;101296.94;4966255;28;20523;-90
2023/07/22 00:28:13;;;;;;;9.43;5.95;;;;;;;15.67;66.03;101296.09;4954834;28;20149;-90
2023/07/22 00:30:39;;;;;;;10.68;6.40;;;;;;;15.67;65.93;101293.47;4964855;28;20031;-90
2023/07/22 00:33:04;;;;;;;10.40;6.38;;;;;;;15.69;66.01;101296.91;4967749;28;20509;-91
2023/07/22 00:35:29;;;;;;;9.65;6.38;;;;;;;15.69;65.91;101292.50;4955644;28;20023;-91
2023/07/22 00:37:55;;;;;;;9.98;6.38;;;;;;;15.70;66.26;101293.34;4966867;28;20062;-90
2023/07/22 00:40:20;;;;;;;9.82;6.72;;;;;;;15.71;65.85;101295.06;4967033;28;20039;-91
2023/07/22 00:42:45;;;;;;;10.30;6.68;;;;;;;15.72;66.28;101297.63;4970650;28;20127;-90
2023/07/22 00:45:11;;;;;;;11.20;6.43;;;;;;;15.72;65.83;101295.00;4974583;28;20033;-91
2023/07/22 00:47:38;;;;;;;10.38;6.25;;;;;;;15.72;65.97;101296.75;4965210;28;20054;-90
2023/07/22 00:50:06;;;;;;;10.45;6.60;;;;;;;15.75;65.80;101296.63;4955765;28;20454;-91
2023/07/22 00:52:32;;;;;;;10.95;6.82;;;;;;;15.76;65.99;101298.34;4953235;28;20047;-91
2023/07/22 00:54:58;;;;;;;12.80;7.50;;;;;;;15.78;67.47;101296.50;4962967;28;20403;-91
2023/07/22 00:57:23;;;;;;;10.05;6.53;;;;;;;15.76;67.70;101291.34;4959907;28;20059;-90
2023/07/22 00:59:49;;;;;;;9.68;6.72;;;;;;;15.76;67.43;101288.72;4955563;28;20530;-90
2023/07/22 01:02:14;;;;;;;10.38;6.68;;;;;;;15.75;68.14;101275.63;4962820;28;20058;-90
2023/07/22 01:04:40;;;;;;;10.02;6.88;;;;;;;15.74;68.09;101287.06;4956288;28;20035;-90
2023/07/22 01:07:09;;;;;;;10.10;6.78;;;;;;;15.71;68.93;101289.81;4956602;28;20027;-91
2023/07/22 01:09:42;;;;;;;11.00;6.70;;;;;;;15.68;68.22;101282.91;4955435;28;20110;-90
2023/07/22 01:12:09;;;;;;;11.80;6.70;;;;;;;15.63;69.17;101283.09;4954654;28;20434;-91
2023/07/22 01:14:35;;;;;;;10.70;6.65;;;;;;;15.61;69.79;101278.84;4962139;28;20047;-91
2023/07/22 01:17:06;;;;;;;11.05;6.82;;;;;;;15.57;69.75;101280.72;4963136;28;20482;-90
2023/07/22 01:19:32;;;;;;;11.13;7.07;;;;;;;15.55;69.84;101274.66;4972464;28;20099;-90
2023/07/22 01:22:00;;;;;;;10.68;6.85;;;;;;;15.52;69.87;101269.56;4963486;28;20027;-91
2023/07/22 01:24:27;;;;;;;10.98;7.35;;;;;;;15.52;69.59;101273.94;4964744;28;20046;-91
2023/07/22 01:26:52;;;;;;;10.55;7.00;;;;;;;15.48;69.68;101271.44;4963174;28;20027;-90
2023/07/22 01:29:17;;;;;;;11.25;7.07;;;;;;;15.47;69.42;101264.47;4964704;28;20026;-91
2023/07/22 01:31:46;;;;;;;10.15;6.68;;;;;;;15.45;69.60;101270.72;4958194;28;20023;-90
2023/07/22 01:34:12;;;;;;;13.15;6.60;;;;;;;15.44;69.69;101261.13;4954693;28;20467;-91
2023/07/22 01:36:37;;;;;;;11.73;6.43;;;;;;;15.43;69.85;101275.16;4954856;28;20082;-92
2023/07/22 01:39:05;;;;;;;11.20;6.68;;;;;;;15.41;69.75;101266.50;4954792;28;20112;-91
2023/07/22 01:41:31;;;;;;;10.40;6.63;;;;;;;15.40;69.50;101264.78;4954382;28;20027;-91
2023/07/22 01:43:56;;;;;;;10.38;6.75;;;;;;;15.38;69.21;101262.25;4965523;28;20041;-92
2023/07/22 01:46:21;;;;;;;9.55;6.45;;;;;;;15.38;69.25;101256.13;4974089;28;20045;-91
2023/07/22 01:48:46;;;;;;;10.60;6.75;;;;;;;15.38;69.52;101256.13;4974079;28;20494;-91
2023/07/22 01:51:12;;;;;;;10.48;6.60;;;;;;;15.36;69.60;101257.97;4965079;28;20122;-91
2023/07/22 01:53:37;;;;;;;10.30;6.25;;;;;;;15.36;69.52;101252.75;4954892;28;20495;-91
2023/07/22 01:56:02;;;;;;;11.43;6.57;;;;;;;15.33;69.54;101257.19;4954808;28;20023;-90
2023/07/22 01:58:27;;;;;;;10.70;6.63;;;;;;;15.33;69.89;101258.94;4971723;28;20030;-90
2023/07/22 02:00:53;;;;;;;10.40;6.88;;;;;;;15.31;69.77;101251.16;4962417;28;20050;-91
2023/07/22 02:03:18;;;;;;;9.90;6.70;;;;;;;15.31;69.71;101251.16;4955773;28;20117;-90
2023/07/22 02:05:43;;;;;;;9.45;6.10;;;;;;;15.29;70.05;101252.09;4970201;28;20089;-90
2023/07/22 02:08:09;;;;;;;11.35;6.40;;;;;;;15.30;70.29;101253.81;4956948;28;20039;-91
2023/07/22 02:10:35;;;;;;;9.90;6.38;;;;;;;15.30;70.31;101261.66;4955082;28;20019;-91
2023/07/22 02:13:01;;;;;;;9.80;6.32;;;;;;;15.29;70.28;101255.59;4959728;28;20090;-91
2023/07/22 02:15:28;;;;;;;12.88;7.05;;;;;;;15.30;70.37;101259.06;4970105;28;20110;-90
2023/07/22 02:17:55;;;;;;;11.98;6.60;;;;;;;15.29;69.84;101254.72;4958332;28;20054;-91
2023/07/22 02:20:20;;;;;;;10.45;6.75;;;;;;;15.27;70.68;101252.16;4967236;28;20043;-91
2023/07/22 02:22:45;;;;;;;11.38;6.60;;;;;;;15.26;70.51;101253.09;4961955;28;20045;-90
2023/07/22 02:25:10;;;;;;;11.68;6.45;;;;;;;15.26;70.98;101250.47;4963762;28;20031;-91
2023/07/22 02:27:36;;;;;;;10.05;6.50;;;;;;;15.26;70.87;101242.59;4964773;28;20030;-91
2023/07/22 02:30:04;;;;;;;11.48;6.68;;;;;;;15.25;71.34;101243.50;4972851;28;20364;-91
2023/07/22 02:32:29;;;;;;;10.57;6.78;;;;;;;15.25;71.39;101240.06;4958689;28;20035;-91
2023/07/22 02:34:54;;;;;;;10.95;6.53;;;;;;;15.22;71.50;101241.00;4971453;28;20430;-91
2023/07/22 02:37:20;;;;;;;9.77;6.43;;;;;;;15.20;71.21;101241.97;4968281;28;20070;-91
2023/07/22 02:39:45;;;;;;;11.05;7.13;;;;;;;15.16;72.04;101239.47;4964830;28;20052;-91
2023/07/22 02:42:11;;;;;;;10.10;6.50;;;;;;;15.13;71.25;101244.00;4961952;28;20042;-90
2023/07/22 02:44:36;;;;;;;9.95;6.55;;;;;;;15.10;71.67;101242.34;4964070;28;20049;-91
2023/07/22 02:47:02;;;;;;;10.63;6.63;;;;;;;15.08;71.37;101236.31;4972149;28;20030;-90
2023/07/22 02:49:27;;;;;;;10.45;6.22;;;;;;;15.09;71.07;101239.78;4990099;28;20087;-90
2023/07/22 02:51:52;;;;;;;11.15;6.60;;;;;;;15.05;71.08;101233.81;4986667;28;20019;-91
2023/07/22 02:54:17;;;;;;;11.48;6.75;;;;;;;15.01;70.93;101237.44;4982206;28;20057;-90
2023/07/22 02:56:43;;;;;;;8.95;6.10;;;;;;;14.98;70.81;101241.06;4970689;28;20038;-91
2023/07/22 02:59:09;;;;;;;10.57;6.40;;;;;;;14.94;71.00;101239.44;4967186;28;20035;-91
2023/07/22 03:01:34;;;;;;;11.25;6.63;;;;;;;14.92;71.15;101245.66;4958521;28;20031;-91
2023/07/22 03:04:00;;;;;;;9.82;6.60;;;;;;;14.88;70.87;101247.53;4963883;28;20115;-92
2023/07/22 03:06:26;;;;;;;10.60;6.65;;;;;;;14.85;71.04;101242.44;4963840;28;20035;-91
2023/07/22 03:08:51;;;;;;;10.52;6.47;;;;;;;14.81;71.11;101244.28;4959527;28;20063;-91
2023/07/22 03:11:16;;;;;;;9.95;6.90;;;;;;;14.78;71.25;101246.19;4964930;28;20026;-91
2023/07/22 03:13:42;;;;;;;11.25;6.53;;;;;;;14.76;71.13;101245.38;4960635;28;20391;-91
2023/07/22 03:16:08;;;;;;;9.50;6.13;;;;;;;14.72;71.29;101242.84;4960298;28;20050;-91
2023/07/22 03:18:33;;;;;;;9.30;5.85;;;;;;;14.70;71.47;101244.69;4973672;28;20026;-90
2023/07/22 03:20:59;;;;;;;10.27;6.28;;;;;;;14.70;71.42;101254.31;4962326;28;20037;-91
2023/07/22 03:23:24;;;;;;;11.63;6.32;;;;;;;14.66;71.54;101258.78;4971276;28;20019;-91
2023/07/22 03:25:49;;;;;;;8.88;5.80;;;;;;;14.65;71.73;101257.06;4960666;28;20372;-91
2023/07/22 03:28:16;;;;;;;11.10;6.20;;;;;;;14.63;71.60;101258.88;4970574;28;20030;-90
2023/07/22 03:30:42;;;;;;;16.10;6.30;;;;;;;14.58;71.59;101266.03;4962363;28;20546;-90
2023/07/22 03:33:08;;;;;;;11.13;6.57;;;;;;;14.56;71.75;101254.78;4974996;28;20110;-91
2023/07/22 03:35:33;;;;;;;10.05;6.50;;;;;;;14.55;72.37;101264.41;4968853;28;20023;-91
2023/07/22 03:37:59;;;;;;;9.55;6.18;;;;;;;14.53;72.19;101262.72;4970815;28;20027;-90
2023/07/22 03:40:29;;;;;;;10.18;6.47;;;;;;;14.53;72.41;101268.84;4960183;28;20022;-91
2023/07/22 03:42:55;;;;;;;12.55;6.70;;;;;;;14.51;72.42;101269.81;4955859;28;20047;-90
2023/07/22 03:45:21;;;;;;;12.18;6.50;;;;;;;14.51;72.51;101261.97;4957184;28;20034;-90
2023/07/22 03:47:49;;;;;;;11.90;6.28;;;;;;;14.49;72.54;101266.38;4956982;28;20035;-91
2023/07/22 03:50:15;;;;;;;11.77;6.32;;;;;;;14.49;72.34;101263.78;4956298;28;20031;-90
2023/07/22 03:52:40;;;;;;;10.65;6.32;;;;;;;14.45;72.26;101255.16;4958517;28;20565;-92
2023/07/22 03:55:05;;;;;;;10.27;6.15;;;;;;;14.41;72.55;101259.66;4956903;28;20478;-91
2023/07/22 03:57:31;;;;;;;9.98;6.45;;;;;;;14.36;72.81;101256.31;4956793;28;20027;-91
2023/07/22 03:59:57;;;;;;;9.25;5.85;;;;;;;14.32;72.96;101257.38;4956779;28;20054;-91
2023/07/22 04:02:23;;;;;;;11.88;6.35;;;;;;;14.27;73.07;101262.72;4954946;28;20039;-91
2023/07/22 04:04:48;;;;;;;11.38;6.20;;;;;;;14.26;73.49;101260.19;4961579;28;20027;-91
2023/07/22 04:07:14;;;;;;;11.40;6.57;;;;;;;14.25;73.42;101263.72;4974209;28;20381;-90
2023/07/22 04:09:40;;;;;;;10.68;6.40;;;;;;;14.22;73.65;101258.56;4959668;28;20023;-91
2023/07/22 04:12:06;;;;;;;10.75;6.10;;;;;;;14.21;73.67;101257.72;4972704;28;20039;-91
2023/07/22 04:14:32;;;;;;;8.70;5.78;;;;;;;14.20;73.70;101252.53;4969117;28;20035;-91
2023/07/22 04:16:57;;;;;;;11.18;6.25;;;;;;;14.18;73.88;101256.97;4963777;28;20490;-90
2023/07/22 04:19:22;;;;;;;9.60;6.20;;;;;;;14.17;73.99;101263.13;4966912;28;20023;-91
2023/07/22 04:21:47;;;;;;;10.63;6.28;;;;;;;14.14;74.16;101258.00;4965151;28;20035;-91
2023/07/22 04:24:13;;;;;;;10.85;6.40;;;;;;;14.13;74.13;101264.13;4958344;28;20023;-91
2023/07/22 04:26:40;;;;;;;9.80;5.95;;;;;;;14.11;74.07;101262.44;4956709;28;20031;-91
2023/07/22 04:29:05;;;;;;;10.32;5.80;;;;;;;14.11;74.36;101262.44;4973399;28;20038;-90
2023/07/22 04:31:30;;;;;;;11.60;6.45;;;;;;;14.11;74.64;101262.44;4956458;28;20114;-92
2023/07/22 04:33:57;;;;;;;10.10;6.25;;;;;;;14.12;74.34;101268.50;4967041;28;20027;-91
2023/07/22 04:36:22;;;;;;;9.93;6.45;;;;;;;14.11;74.38;101265.03;4956176;28;20118;-91
2023/07/22 04:38:47;;;;;;;11.05;6.07;;;;;;;14.13;74.58;101269.38;4962525;28;20492;-91
2023/07/22 04:41:13;;;;;;;9.82;6.18;;;;;;;14.13;74.71;101264.97;4971941;28;20026;-92
2023/07/22 04:43:40;;;;;;;9.50;5.90;;;;;;;14.12;74.51;101271.13;4963390;28;20023;-90
2023/07/22 04:46:05;;;;;;;9.75;6.15;;;;;;;14.11;74.81;101267.66;4960720;28;20027;-91
2023/07/22 04:48:31;;;;;;;11.18;6.20;;;;;;;14.13;74.76;101267.59;4972043;28;20501;-90
2023/07/22 04:50:56;;;;;;;10.63;6.18;;;;;;;14.14;75.13;101264.06;4958862;28;20080;-91
2023/07/22 04:53:22;;;;;;;9.48;5.82;;;;;;;14.16;75.02;101267.50;4958643;28;20075;-90
2023/07/22 04:55:47;;;;;;;9.95;5.90;;;;;;;14.18;74.96;101268.31;4957179;28;20029;-91
2023/07/22 04:58:13;;;;;;;11.00;5.82;;;;;;;14.20;75.14;101269.09;4971610;28;20038;-91
2023/07/22 05:00:38;;;;;;;10.80;5.97;;;;;;;14.23;75.22;101276.00;4967684;28;20534;-91
2023/07/22 05:03:04;;;;;;;10.93;6.00;;;;;;;14.25;75.45;101280.28;4967846;28;20034;-93
2023/07/22 05:05:29;;;;;;;11.73;5.63;;;;;;;14.27;75.03;101272.38;4958490;28;20038;-91
2023/07/22 05:07:55;;;;;;;12.07;5.72;;;;;;;14.29;75.26;101270.56;4963267;28;20386;-92
2023/07/22 05:10:21;;;;;;;10.57;5.80;;;;;;;14.33;75.14;101277.41;4960637;28;20505;-91
2023/07/22 05:12:46;;;;;;;9.95;6.03;;;;;;;14.37;74.80;101273.75;4963927;28;20502;-92
2023/07/22 05:15:13;;;;;;;10.20;5.80;;;;;;;14.40;75.07;101272.81;4955149;28;20486;-92
2023/07/22 05:17:38;;;;;;;10.75;6.60;;;;;;;14.45;74.92;101280.50;4967728;28;20022;-93
2023/07/22 05:20:12;;;;;;;11.88;6.18;;;;;;;14.48;74.79;101285.63;4966713;28;20035;-91
2023/07/22 05:22:38;;;;;;;10.10;5.93;;;;;;;14.51;75.24;101282.91;4958513;28;20023;-91
2023/07/22 05:25:05;;;;;;;10.93;6.18;;;;;;;14.52;75.18;101276.72;4965902;28;20490;-92
2023/07/22 05:27:30;;;;;;;9.88;6.10;;;;;;;14.54;75.39;101278.41;4978170;28;20019;-90
2023/07/22 05:29:55;;;;;;;10.15;6.28;;;;;;;14.60;75.55;101279.94;4993669;28;20026;-91
2023/07/22 05:32:21;;;;;;;9.27;5.97;;;;;;;14.63;75.06;101271.97;4973927;28;20035;-92
2023/07/22 05:34:46;;;;;;;10.35;6.63;;;;;;;14.63;75.71;101274.59;4965207;28;20202;-91
2023/07/22 05:37:11;;;;;;;10.18;6.18;;;;;;;14.64;75.85;101271.06;4961313;28;20089;-91
2023/07/22 05:39:38;;;;;;;11.82;6.65;;;;;;;14.66;75.69;101279.75;4973645;28;20041;-90
2023/07/22 05:42:04;;;;;;;10.65;6.22;;;;;;;14.68;75.55;101285.81;4965099;28;20475;-91
2023/07/22 05:44:29;;;;;;;12.30;6.05;;;;;;;14.72;75.48;101282.16;4971857;28;20061;-91
2023/07/22 05:46:55;;;;;;;11.07;6.38;;;;;;;14.78;75.48;101273.22;4974310;28;20034;-91
2023/07/22 05:49:20;;;;;;;11.27;6.55;;;;;;;14.85;75.55;101279.09;4974027;28;20105;-91
2023/07/22 05:51:45;;;;;;;10.02;5.68;;;;;;;14.93;75.91;101271.81;4972262;28;20386;-91
2023/07/22 05:54:11;;;;;;;10.80;6.32;;;;;;;14.99;75.43;101274.19;4968262;28;20133;-92
2023/07/22 05:56:36;;;;;;;10.30;6.10;;;;;;;15.04;75.62;101279.25;4963190;28;20026;-91
2023/07/22 05:59:01;;;;;;;10.88;6.25;;;;;;;15.10;75.15;101276.41;4969353;28;20028;-92
2023/07/22 06:01:27;;;;;;;10.57;6.10;;;;;;;15.17;75.51;101266.56;4961496;28;20031;-91
2023/07/22 06:03:53;;;;;;;11.40;6.40;;;;;;;15.23;75.00;101262.84;4961815;28;20090;-91
2023/07/22 06:06:18;;;;;;;10.90;6.28;;;;;;;15.28;75.55;101259.13;4965511;28;20038;-91
2023/07/22 06:08:44;;;;;;;11.45;6.45;;;;;;;15.33;74.74;101262.44;4963165;28;20034;-91
2023/07/22 06:11:09;;;;;;;9.55;5.72;;;;;;;15.39;74.71;101263.94;4960384;28;20026;-91
2023/07/22 06:13:35;;;;;;;10.18;5.75;;;;;;;15.44;76.22;101263.75;4960027;28;20047;-91
2023/07/22 06:16:00;;;;;;;12.85;6.05;;;;;;;15.48;74.31;101260.13;4957478;28;20027;-91
2023/07/22 06:18:25;;;;;;;9.82;6.22;;;;;;;15.49;74.90;101259.19;4954557;28;20434;-93
2023/07/22 06:20:51;;;;;;;12.13;6.53;;;;;;;15.54;75.17;101262.47;4960225;28;20020;-92
2023/07/22 06:23:16;;;;;;;10.18;6.03;;;;;;;15.59;73.95;101265.78;4962207;28;20459;-91
2023/07/22 06:25:41;;;;;;;12.48;6.97;;;;;;;15.64;74.24;101257.72;4964131;28;20019;-91
2023/07/22 06:28:08;;;;;;;12.43;6.82;;;;;;;15.70;74.27;101259.25;4963299;28;20030;-90
2023/07/22 06:30:33;;;;;;;11.18;6.50;;;;;;;15.75;74.38;101263.41;4958919;28;20031;-91
2023/07/22 06:32:58;;;;;;;11.20;7.00;;;;;;;15.81;74.43;101257.03;4960532;28;20085;-91
2023/07/22 06:35:24;;;;;;;12.00;6.70;;;;;;;15.83;74.04;101264.84;4963461;28;20027;-91
2023/07/22 06:37:49;;;;;;;11.52;6.88;;;;;;;15.87;74.40;101254.22;4960613;28;20027;-92
2023/07/22 06:40:14;;;;;;;12.57;7.20;;;;;;;15.87;73.71;101259.44;4961459;28;20035;-92
2023/07/22 06:42:39;;;;;;;11.18;6.85;;;;;;;15.87;75.03;101254.22;4955408;28;20475;-92
2023/07/22 06:45:05;;;;;;;15.65;7.50;;;;;;;15.91;74.29;101250.50;4958473;28;20034;-93
2023/07/22 06:47:31;;;;;;;13.25;7.05;;;;;;;15.95;74.29;101250.38;4957372;28;20093;-92
2023/07/22 06:49:57;;;;;;;12.77;6.85;;;;;;;15.98;74.90;101245.03;4959651;28;20470;-93
2023/07/22 06:52:22;;;;;;;12.43;7.18;;;;;;;15.97;75.04;101243.31;4965492;28;20045;-91
2023/07/22 06:54:48;;;;;;;11.90;6.78;;;;;;;15.99;74.60;101241.47;4969299;28;20031;-91
2023/07/22 06:57:13;;;;;;;12.95;7.15;;;;;;;16.05;74.95;101235.97;4970729;28;20045;-92
2023/07/22 06:59:38;;;;;;;11.77;6.57;;;;;;;16.13;74.63;101231.25;4959573;28;20477;-93
2023/07/22 07:02:04;;;;;;;11.95;6.03;;;;;;;16.22;74.93;101230.00;4958293;28;20063;-91
2023/07/22 07:04:30;;;;;;;11.02;6.93;;;;;;;16.32;74.46;101227.81;4966675;28;20109;-92
2023/07/22 07:06:55;;;;;;;14.38;7.57;;;;;;;16.38;73.71;101228.41;4966768;28;20150;-94
2023/07/22 07:09:21;;;;;;;13.50;7.05;;;;;;;16.48;74.47;101230.63;4960020;28;20154;-91
2023/07/22 07:11:46;;;;;;;11.38;7.15;;;;;;;16.55;74.43;101234.69;4963466;28;20497;-92
2023/07/22 07:14:12;;;;;;;12.75;6.78;;;;;;;16.62;73.98;101238.75;4959871;28;20034;-92
2023/07/22 07:16:37;;;;;;;12.60;6.88;;;;;;;16.70;72.99;101235.78;4959396;28;20122;-92
2023/07/22 07:19:03;;;;;;;12.95;7.53;;;;;;;16.77;73.69;101234.56;4957421;28;20450;-92
2023/07/22 07:21:28;;;;;;;12.43;6.70;;;;;;;16.79;73.47;101243.22;4957247;28;20486;-92
2023/07/22 07:23:54;;;;;;;13.38;6.75;;;;;;;16.80;72.35;101244.94;4958300;28;20479;-92
2023/07/22 07:26:20;;;;;;;14.98;7.13;;;;;;;16.78;72.70;101232.81;4973774;28;20035;-91
2023/07/22 07:28:46;;;;;;;11.68;6.72;;;;;;;16.78;72.84;101240.69;4959783;28;20058;-92
2023/07/22 07:31:12;;;;;;;13.35;6.75;;;;;;;16.83;73.24;101243.94;4956390;28;20031;-91
2023/07/22 07:33:37;;;;;;;10.40;6.70;;;;;;;16.87;72.96;101237.63;4969604;28;20359;-90
2023/07/22 07:36:03;;;;;;;11.52;6.60;;;;;;;16.91;73.09;101243.59;4967867;28;20027;-90
2023/07/22 07:38:28;;;;;;;13.38;7.13;;;;;;;16.95;72.24;101238.16;4966264;28;20035;-91
2023/07/22 07:41:08;;;;;;;11.70;6.55;;;;;;;16.99;72.82;101242.34;4963980;28;20534;-88
2023/07/22 07:43:34;;;;;;;11.82;6.70;;;;;;;17.05;73.08;101241.22;4970717;28;20030;-93
2023/07/22 07:46:32;;;;;;;10.02;6.07;;;;;;;17.11;72.32;101237.44;4971618;28;20382;-91
2023/07/22 07:49:00;;;;;;;11.68;5.88;;;;;;;17.14;72.12;101235.53;4970387;28;20042;-92
2023/07/22 07:51:27;;;;;;;11.50;6.45;;;;;;;17.16;72.08;101245.09;4967746;28;20474;-92
2023/07/22 07:53:53;;;;;;;12.02;6.13;;;;;;;17.18;71.85;101238.84;4972349;28;20043;-92
2023/07/22 07:56:19;;;;;;;14.90;6.88;;;;;;;17.22;71.91;101248.31;4970721;28;20022;-93
2023/07/22 07:58:46;;;;;;;10.38;6.65;;;;;;;17.23;71.53;101241.28;4961252;28;20371;-90
2023/07/22 08:01:11;;;;;;;16.17;7.13;;;;;;;17.25;71.92;101239.44;4971093;28;20553;-92
2023/07/22 08:03:38;;;;;;;12.55;6.82;;;;;;;17.26;72.38;101241.09;4968934;28;20109;-89
2023/07/22 08:06:03;;;;;;;10.13;6.13;;;;;;;17.31;71.80;101246.19;4972265;28;20023;-92
2023/07/22 08:08:29;;;;;;;11.40;6.22;;;;;;;17.33;71.90;101242.53;4962071;28;20689;-89
2023/07/22 08:11:02;;;;;;;11.60;6.43;;;;;;;17.42;72.44;101254.38;4972684;28;20466;-90
2023/07/22 08:13:29;;;;;;;11.25;6.22;;;;;;;17.54;71.60;101250.31;4972223;28;20054;-90
2023/07/22 08:15:55;;;;;;;9.82;5.93;;;;;;;17.67;70.70;101250.59;4967719;28;20023;-92
2023/07/22 08:18:20;;;;;;;11.18;5.90;;;;;;;17.75;71.36;101251.91;4964475;28;20034;-90
2023/07/22 08:20:47;;;;;;;10.80;5.78;;;;;;;17.81;70.34;101247.25;4972361;28;20077;-93
2023/07/22 08:23:12;;;;;;;11.48;6.10;;;;;;;17.85;70.77;101240.91;4968522;28;20027;-91
2023/07/22 08:25:38;;;;;;;13.63;6.50;;;;;;;17.89;70.18;101251.19;4967380;28;20035;-91
2023/07/22 08:28:03;;;;;;;10.38;6.00;;;;;;;17.97;69.46;101245.53;4971612;28;20018;-90
2023/07/22 08:30:30;;;;;;;9.68;5.45;;;;;;;18.04;68.14;101244.34;4970552;28;20370;-93
2023/07/22 08:32:56;;;;;;;11.30;5.40;;;;;;;18.11;68.28;101244.88;4970933;28;20031;-91
2023/07/22 08:35:22;;;;;;;10.35;5.50;;;;;;;18.15;67.97;101245.56;4972462;28;20121;-91
2023/07/22 08:37:47;;;;;;;10.02;5.35;;;;;;;18.17;67.51;101254.25;4972677;28;20035;-92
2023/07/22 08:40:13;;;;;;;7.88;4.57;;;;;;;18.16;66.06;101252.53;4970129;28;20030;-90
2023/07/22 08:42:39;;;;;;;8.50;4.90;;;;;;;18.16;65.58;101249.91;4968829;28;20029;-91
2023/07/22 08:45:08;;;;;;;9.55;4.55;;;;;;;18.15;65.77;101253.47;4970300;28;20022;-89
2023/07/22 08:47:35;;;;;;;7.10;4.38;;;;;;;18.18;64.78;101256.81;4969129;28;20088;-90
2023/07/22 08:50:02;;;;;;;9.38;4.72;;;;;;;18.26;64.74;101250.28;4970419;28;20031;-90
2023/07/22 08:52:28;;;;;;;7.78;4.68;;;;;;;18.38;65.45;101247.00;4968477;28;20440;-89
2023/07/22 08:54:54;;;;;;;10.05;4.50;;;;;;;18.46;65.08;101244.84;4965360;28;20014;-96
2023/07/22 08:57:20;;;;;;;7.93;4.28;;;;;;;18.55;64.84;101250.53;4973752;28;20474;-91
2023/07/22 08:59:46;;;;;;;9.05;4.80;;;;;;;18.62;63.74;101247.50;4967925;28;20035;-90
2023/07/22 09:02:13;;;;;;;9.02;4.38;;;;;;;18.70;63.24;101246.25;4970991;28;20429;-92
2023/07/22 09:04:42;;;;;;;9.57;4.22;;;;;;;18.82;62.64;101245.56;4967687;28;20035;-92
2023/07/22 09:07:08;;;;;;;8.93;4.07;;;;;;;18.97;62.61;101249.22;4967079;28;20078;-91
2023/07/22 09:09:34;;;;;;;8.82;4.15;;;;;;;19.08;60.80;101240.72;4970884;28;20485;-91
2023/07/22 09:12:08;;;;;;;6.30;3.45;;;;;;;19.14;60.72;101244.78;4970434;28;20489;-95
2023/07/22 09:14:38;;;;;;;6.53;4.05;;;;;;;19.20;60.48;101250.56;4973663;28;20053;-94
2023/07/22 09:17:05;;;;;;;5.53;3.20;;;;;;;19.24;58.24;101254.75;4967773;28;20090;-93
2023/07/22 09:19:30;;;;;;;7.07;3.65;;;;;;;19.23;59.51;101249.53;4969491;28;20019;-91
2023/07/22 09:21:55;;;;;;;6.57;3.10;;;;;;;19.26;59.81;101252.88;4968949;28;20034;-91
2023/07/22 09:24:23;;;;;;;7.30;3.50;;;;;;;19.31;58.76;101246.47;4969727;28;20031;-93
2023/07/22 09:26:48;;;;;;;5.88;3.38;;;;;;;19.33;58.18;101244.59;4969097;28;20201;-94
2023/07/22 09:29:14;;;;;;;4.97;3.30;;;;;;;19.32;57.29;101248.16;4966337;28;20050;-91
2023/07/22 09:31:51;;;;;;;6.38;3.03;;;;;;;19.28;58.61;101242.22;4966854;28;20023;-91
2023/07/22 09:34:16;;;;;;;4.65;2.60;;;;;;;19.26;56.12;101244.97;4969284;28;20355;-91
2023/07/22 09:36:56;;;;;;;4.85;2.78;;;;;;;19.29;57.62;101243.94;4968228;28;20404;-90
2023/07/22 09:39:22;;;;;;;5.35;2.88;;;;;;;19.29;55.97;101243.94;4957493;28;20028;-92
2023/07/22 09:41:48;;;;;;;4.38;2.60;;;;;;;19.33;56.70;101239.31;4970918;28;20035;-92
2023/07/22 09:44:14;;;;;;;5.20;3.25;;;;;;;19.43;57.38;101227.31;4968809;28;20367;-91
2023/07/22 09:46:39;;;;;;;5.32;3.00;;;;;;;19.50;56.56;101226.03;4969141;28;20030;-92
2023/07/22 09:49:08;;;;;;;4.97;3.05;;;;;;;19.56;56.28;101232.72;4970147;28;20027;-92
2023/07/22 09:51:38;;;;;;;7.47;3.17;;;;;;;19.51;56.25;101227.72;4964596;28;20038;-91
2023/07/22 09:54:04;;;;;;;8.18;3.33;;;;;;;19.49;56.64;101228.75;4970326;28;20085;-92
2023/07/22 09:56:30;;;;;;;6.03;3.00;;;;;;;19.47;56.73;101220.91;4969447;28;20038;-92
2023/07/22 09:58:58;;;;;;;5.00;3.00;;;;;;;19.50;57.88;101230.47;4971180;28;20027;-92
2023/07/22 10:01:25;;;;;;;5.88;3.17;;;;;;;19.57;57.36;101226.50;4969981;28;20097;-92
2023/07/22 10:03:55;;;;;;;6.53;3.20;;;;;;;19.65;57.58;101226.06;4968194;28;20493;-92
2023/07/22 10:06:33;;;;;;;6.82;2.97;;;;;;;19.69;57.60;101224.97;4972769;28;20041;-95
2023/07/22 10:09:09;;;;;;;5.95;2.97;;;;;;;19.73;56.37;101231.75;4977756;28;20029;-94
2023/07/22 10:11:35;;;;;;;7.28;2.90;;;;;;;19.79;56.64;101220.84;4967091;28;20019;-92
2023/07/22 10:14:05;;;;;;;4.65;2.88;;;;;;;19.85;56.19;101235.50;4968680;28;20363;-92
2023/07/22 10:16:30;;;;;;;3.80;2.60;;;;;;;19.84;56.73;101229.34;4970580;28;20054;-92
2023/07/22 10:18:56;;;;;;;6.40;2.95;;;;;;;19.87;55.49;101228.34;4970353;28;20368;-91
2023/07/22 10:21:23;;;;;;;5.45;2.63;;;;;;;19.86;56.65;101227.47;4969097;28;20046;-92
2023/07/22 10:23:50;;;;;;;5.70;3.13;;;;;;;19.88;57.09;101237.13;4968424;28;20118;-91
2023/07/22 10:26:17;;;;;;;4.15;2.65;;;;;;;19.88;56.94;101223.91;4968649;28;20549;-92
2023/07/22 10:28:44;;;;;;;7.13;2.83;;;;;;;19.91;56.25;101224.56;4971618;28;20588;-93
2023/07/22 10:31:10;;;;;;;7.80;2.90;;;;;;;19.94;56.19;101228.84;4970778;28;20030;-92
2023/07/22 10:33:35;;;;;;;8.57;3.00;;;;;;;20.04;56.71;101223.88;4972563;28;20031;-91
2023/07/22 10:36:05;;;;;;;5.82;2.97;;;;;;;20.12;56.83;101230.38;4972839;28;20038;-91
2023/07/22 10:38:31;;;;;;;5.18;2.83;;;;;;;20.22;56.23;101219.25;4956087;28;20041;-90
2023/07/22 10:40:56;;;;;;;5.22;2.60;;;;;;;20.33;56.37;101219.44;4959771;28;20031;-91
2023/07/22 10:43:43;;;;;;;5.75;2.67;;;;;;;20.44;56.81;101232.88;4970589;28;20062;-91
2023/07/22 10:46:11;;;;;;;6.07;2.63;;;;;;;20.49;54.86;101229.94;4969161;28;20030;-91
2023/07/22 10:48:38;;;;;;;4.88;2.75;;;;;;;20.49;55.29;101226.47;4953578;28;20038;-91
2023/07/22 10:51:07;;;;;;;7.97;2.75;;;;;;;20.42;55.19;101213.59;4964625;28;20078;-90
2023/07/22 10:53:32;;;;;;;6.03;2.65;;;;;;;20.40;54.65;101204.91;4971491;28;20078;-91
2023/07/22 10:56:12;;;;;;;5.13;2.63;;;;;;;20.39;55.50;101212.97;4958332;28;20063;-93
2023/07/22 10:58:46;;;;;;;5.30;2.47;;;;;;;20.33;54.98;101214.16;4969339;28;20132;-93
2023/07/22 11:01:45;;;;;;;6.22;2.88;;;;;;;20.37;55.97;101210.38;4970354;28;20117;-94
2023/07/22 11:04:17;;;;;;;4.40;2.40;;;;;;;20.43;55.68;101215.31;4960491;28;20103;-91
2023/07/22 11:06:48;;;;;;;3.75;2.20;;;;;;;20.49;53.65;101219.34;4970483;28;20027;-93
2023/07/22 11:09:34;;;;;;;3.92;1.83;;;;;;;20.54;54.52;101221.72;4970340;28;20035;-89
2023/07/22 11:12:15;;;;;;;4.88;1.95;;;;;;;20.52;53.55;101215.66;4968901;28;20122;-92
2023/07/22 11:14:49;;;;;;;4.03;1.90;;;;;;;20.51;52.55;101212.19;4970538;28;20038;-91
2023/07/22 11:17:14;;;;;;;2.58;1.60;;;;;;;20.54;51.81;101211.13;4971142;28;20026;-93